sensor_id;sensor_type;location;lat;lon;timestamp;pressure;altitude;pressure_sealevel;temperature;humidity
33506;BME280;19843;51.040;13.782;2023-01-26T00:01:16;101078.09;;;2.62;89.71
33506;BME280;19843;51.040;13.782;2023-01-26T00:03:44;101070.25;;;2.58;89.98
33506;BME280;19843;51.040;13.782;2023-01-26T00:06:14;101071.13;;;2.58;90.01
33506;BME280;19843;51.040;13.782;2023-01-26T00:08:44;101058.22;;;2.44;90.15
33506;BME280;19843;51.040;13.782;2023-01-26T00:11:13;101056.84;;;2.65;89.67
33506;BME280;19843;51.040;13.782;2023-01-26T00:13:42;101065.09;;;2.51;89.62
33506;BME280;19843;51.040;13.782;2023-01-26T00:16:12;101059.06;;;2.46;90.21
33506;BME280;19843;51.040;13.782;2023-01-26T00:18:40;101064.16;;;2.54;89.89
33506;BME280;19843;51.040;13.782;2023-01-26T00:21:11;101059.03;;;2.48;89.92
33506;BME280;19843;51.040;13.782;2023-01-26T00:23:39;101062.41;;;2.55;89.94
33506;BME280;19843;51.040;13.782;2023-01-26T00:26:09;101063.41;;;2.49;90.39
33506;BME280;19843;51.040;13.782;2023-01-26T00:28:36;101053.25;;;2.30;90.97
33506;BME280;19843;51.040;13.782;2023-01-26T00:31:07;101056.59;;;2.39;90.97
33506;BME280;19843;51.040;13.782;2023-01-26T00:33:36;101054.00;;;2.36;90.32
33506;BME280;19843;51.040;13.782;2023-01-26T00:36:04;101049.38;;;2.45;90.65
33506;BME280;19843;51.040;13.782;2023-01-26T00:38:32;101040.31;;;2.54;90.48
33506;BME280;19843;51.040;13.782;2023-01-26T00:40:59;101046.34;;;2.61;90.34
33506;BME280;19843;51.040;13.782;2023-01-26T00:43:27;101040.41;;;2.51;90.40
33506;BME280;19843;51.040;13.782;2023-01-26T00:45:55;101038.81;;;2.44;90.58
33506;BME280;19843;51.040;13.782;2023-01-26T00:48:24;101038.50;;;2.58;90.52
33506;BME280;19843;51.040;13.782;2023-01-26T00:50:52;101034.19;;;2.52;90.46
33506;BME280;19843;51.040;13.782;2023-01-26T00:53:19;101031.22;;;2.28;90.92
33506;BME280;19843;51.040;13.782;2023-01-26T00:55:47;101042.13;;;2.54;89.96
33506;BME280;19843;51.040;13.782;2023-01-26T00:58:14;101042.34;;;2.44;90.09
33506;BME280;19843;51.040;13.782;2023-01-26T01:00:42;101042.81;;;2.62;89.62
33506;BME280;19843;51.040;13.782;2023-01-26T01:03:09;101039.47;;;2.54;89.54
33506;BME280;19843;51.040;13.782;2023-01-26T01:05:38;101037.28;;;2.34;90.16
33506;BME280;19843;51.040;13.782;2023-01-26T01:08:06;101041.59;;;2.38;90.45
33506;BME280;19843;51.040;13.782;2023-01-26T01:10:33;101033.88;;;2.28;91.17
33506;BME280;19843;51.040;13.782;2023-01-26T01:13:01;101029.94;;;2.46;90.95
33506;BME280;19843;51.040;13.782;2023-01-26T01:15:28;101033.34;;;2.51;90.56
33506;BME280;19843;51.040;13.782;2023-01-26T01:17:56;101044.78;;;2.52;90.51
33506;BME280;19843;51.040;13.782;2023-01-26T01:20:23;101043.06;;;2.51;90.02
33506;BME280;19843;51.040;13.782;2023-01-26T01:22:52;101036.59;;;2.25;90.72
33506;BME280;19843;51.040;13.782;2023-01-26T01:25:20;101039.28;;;2.24;91.35
33506;BME280;19843;51.040;13.782;2023-01-26T01:27:47;101040.88;;;2.31;91.06
33506;BME280;19843;51.040;13.782;2023-01-26T01:30:14;101031.31;;;2.25;91.05
33506;BME280;19843;51.040;13.782;2023-01-26T01:32:42;101032.81;;;2.36;91.14
33506;BME280;19843;51.040;13.782;2023-01-26T01:35:10;101029.81;;;2.53;90.77
33506;BME280;19843;51.040;13.782;2023-01-26T01:37:37;101022.53;;;2.23;91.73
33506;BME280;19843;51.040;13.782;2023-01-26T01:40:10;101017.16;;;2.26;92.00
33506;BME280;19843;51.040;13.782;2023-01-26T01:42:45;101018.69;;;2.37;91.69
33506;BME280;19843;51.040;13.782;2023-01-26T01:45:35;101015.97;;;2.40;91.28
33506;BME280;19843;51.040;13.782;2023-01-26T01:48:06;101011.94;;;2.23;91.91
33506;BME280;19843;51.040;13.782;2023-01-26T01:50:38;101002.72;;;2.40;91.14
33506;BME280;19843;51.040;13.782;2023-01-26T01:53:06;100995.66;;;2.40;90.75
33506;BME280;19843;51.040;13.782;2023-01-26T01:55:36;100993.00;;;2.40;90.66
33506;BME280;19843;51.040;13.782;2023-01-26T01:58:04;100995.78;;;2.36;91.02
33506;BME280;19843;51.040;13.782;2023-01-26T02:00:33;100992.22;;;2.37;91.12
33506;BME280;19843;51.040;13.782;2023-01-26T02:03:04;101000.41;;;2.26;91.51
33506;BME280;19843;51.040;13.782;2023-01-26T02:05:46;100994.19;;;2.28;91.45
33506;BME280;19843;51.040;13.782;2023-01-26T02:08:16;100987.94;;;2.31;91.40
33506;BME280;19843;51.040;13.782;2023-01-26T02:10:48;100987.44;;;2.15;92.50
33506;BME280;19843;51.040;13.782;2023-01-26T02:13:17;100978.59;;;2.16;92.99
33506;BME280;19843;51.040;13.782;2023-01-26T02:15:46;100973.75;;;2.34;92.51
33506;BME280;19843;51.040;13.782;2023-01-26T02:18:14;100970.38;;;2.27;92.67
33506;BME280;19843;51.040;13.782;2023-01-26T02:20:44;100979.31;;;2.23;92.42
33506;BME280;19843;51.040;13.782;2023-01-26T02:23:19;100969.75;;;2.16;92.65
33506;BME280;19843;51.040;13.782;2023-01-26T02:26:00;100961.56;;;2.28;92.66
33506;BME280;19843;51.040;13.782;2023-01-26T02:28:28;100960.13;;;2.13;92.93
33506;BME280;19843;51.040;13.782;2023-01-26T02:30:56;100947.59;;;2.21;93.04
33506;BME280;19843;51.040;13.782;2023-01-26T02:33:25;100944.97;;;2.21;93.12
33506;BME280;19843;51.040;13.782;2023-01-26T02:35:53;100940.13;;;2.39;92.88
33506;BME280;19843;51.040;13.782;2023-01-26T02:38:22;100935.56;;;2.45;92.48
33506;BME280;19843;51.040;13.782;2023-01-26T02:40:54;100932.69;;;2.55;92.60
33506;BME280;19843;51.040;13.782;2023-01-26T02:43:25;100924.88;;;2.48;92.21
33506;BME280;19843;51.040;13.782;2023-01-26T02:45:53;100923.19;;;2.46;91.93
33506;BME280;19843;51.040;13.782;2023-01-26T02:48:21;100923.09;;;2.49;91.80
33506;BME280;19843;51.040;13.782;2023-01-26T02:51:03;100916.78;;;2.55;91.31
33506;BME280;19843;51.040;13.782;2023-01-26T02:53:31;100922.13;;;2.53;92.00
33506;BME280;19843;51.040;13.782;2023-01-26T02:55:59;100921.06;;;2.59;91.88
33506;BME280;19843;51.040;13.782;2023-01-26T02:58:27;100925.28;;;2.67;90.58
33506;BME280;19843;51.040;13.782;2023-01-26T03:00:54;100916.56;;;2.64;90.15
33506;BME280;19843;51.040;13.782;2023-01-26T03:03:25;100912.16;;;2.63;89.86
33506;BME280;19843;51.040;13.782;2023-01-26T03:06:07;100919.19;;;2.64;89.74
33506;BME280;19843;51.040;13.782;2023-01-26T03:08:36;100916.81;;;2.53;89.97
33506;BME280;19843;51.040;13.782;2023-01-26T03:11:04;100916.97;;;2.47;90.08
33506;BME280;19843;51.040;13.782;2023-01-26T03:13:34;100911.66;;;2.48;90.35
33506;BME280;19843;51.040;13.782;2023-01-26T03:16:05;100912.41;;;2.52;90.65
33506;BME280;19843;51.040;13.782;2023-01-26T03:18:34;100912.50;;;2.49;91.10
33506;BME280;19843;51.040;13.782;2023-01-26T03:21:19;100905.38;;;2.53;91.36
33506;BME280;19843;51.040;13.782;2023-01-26T03:24:05;100901.53;;;2.64;90.60
33506;BME280;19843;51.040;13.782;2023-01-26T03:26:50;100905.16;;;2.60;90.99
33506;BME280;19843;51.040;13.782;2023-01-26T03:29:36;100908.66;;;2.61;90.77
33506;BME280;19843;51.040;13.782;2023-01-26T03:32:03;100902.00;;;2.46;90.68
33506;BME280;19843;51.040;13.782;2023-01-26T03:34:31;100911.56;;;2.51;90.18
33506;BME280;19843;51.040;13.782;2023-01-26T03:36:59;100902.38;;;2.32;90.74
33506;BME280;19843;51.040;13.782;2023-01-26T03:39:26;100896.28;;;2.27;91.10
33506;BME280;19843;51.040;13.782;2023-01-26T03:42:12;100896.78;;;2.43;90.94
33506;BME280;19843;51.040;13.782;2023-01-26T03:44:58;100900.44;;;2.39;90.93
33506;BME280;19843;51.040;13.782;2023-01-26T03:47:44;100898.75;;;2.35;91.81
33506;BME280;19843;51.040;13.782;2023-01-26T03:50:29;100897.81;;;2.37;92.11
33506;BME280;19843;51.040;13.782;2023-01-26T03:53:16;100892.59;;;2.34;92.92
33506;BME280;19843;51.040;13.782;2023-01-26T03:56:04;100895.19;;;2.36;93.27
33506;BME280;19843;51.040;13.782;2023-01-26T03:58:50;100882.38;;;2.20;94.47
33506;BME280;19843;51.040;13.782;2023-01-26T04:01:20;100885.53;;;2.35;94.49
33506;BME280;19843;51.040;13.782;2023-01-26T04:03:52;100882.16;;;2.29;94.03
33506;BME280;19843;51.040;13.782;2023-01-26T04:06:39;100875.91;;;2.32;93.84
33506;BME280;19843;51.040;13.782;2023-01-26T04:09:25;100876.31;;;2.15;94.72
33506;BME280;19843;51.040;13.782;2023-01-26T04:11:52;100869.03;;;2.25;94.82
33506;BME280;19843;51.040;13.782;2023-01-26T04:14:20;100874.25;;;2.26;94.18
33506;BME280;19843;51.040;13.782;2023-01-26T04:17:17;100876.66;;;2.36;93.87
33506;BME280;19843;51.040;13.782;2023-01-26T04:20:04;100872.69;;;2.19;94.71
33506;BME280;19843;51.040;13.782;2023-01-26T04:22:50;100876.16;;;2.21;94.17
33506;BME280;19843;51.040;13.782;2023-01-26T04:25:20;100874.19;;;2.29;94.22
33506;BME280;19843;51.040;13.782;2023-01-26T04:27:47;100872.69;;;2.19;94.13
33506;BME280;19843;51.040;13.782;2023-01-26T04:30:16;100869.16;;;2.20;94.54
33506;BME280;19843;51.040;13.782;2023-01-26T04:32:45;100863.25;;;2.43;94.10
33506;BME280;19843;51.040;13.782;2023-01-26T04:35:13;100859.56;;;2.15;93.81
33506;BME280;19843;51.040;13.782;2023-01-26T04:37:40;100863.31;;;2.06;94.90
33506;BME280;19843;51.040;13.782;2023-01-26T04:40:09;100860.31;;;2.20;95.03
33506;BME280;19843;51.040;13.782;2023-01-26T04:42:37;100858.75;;;2.11;95.12
33506;BME280;19843;51.040;13.782;2023-01-26T04:45:05;100853.69;;;2.02;95.19
33506;BME280;19843;51.040;13.782;2023-01-26T04:47:32;100852.06;;;1.98;95.59
33506;BME280;19843;51.040;13.782;2023-01-26T04:50:01;100853.88;;;1.96;95.95
33506;BME280;19843;51.040;13.782;2023-01-26T04:52:29;100844.72;;;2.09;95.65
33506;BME280;19843;51.040;13.782;2023-01-26T04:54:56;100842.13;;;2.06;95.59
33506;BME280;19843;51.040;13.782;2023-01-26T04:57:24;100842.84;;;2.14;95.30
33506;BME280;19843;51.040;13.782;2023-01-26T04:59:52;100842.56;;;1.89;95.81
33506;BME280;19843;51.040;13.782;2023-01-26T05:02:19;100848.03;;;2.17;94.70
33506;BME280;19843;51.040;13.782;2023-01-26T05:04:46;100852.19;;;2.27;94.60
33506;BME280;19843;51.040;13.782;2023-01-26T05:07:15;100850.72;;;2.16;94.44
33506;BME280;19843;51.040;13.782;2023-01-26T05:09:43;100853.56;;;2.08;95.34
33506;BME280;19843;51.040;13.782;2023-01-26T05:12:10;100853.31;;;2.17;95.40
33506;BME280;19843;51.040;13.782;2023-01-26T05:14:55;100853.47;;;2.11;95.07
33506;BME280;19843;51.040;13.782;2023-01-26T05:17:23;100855.31;;;2.09;95.64
33506;BME280;19843;51.040;13.782;2023-01-26T05:19:50;100857.84;;;2.14;95.21
33506;BME280;19843;51.040;13.782;2023-01-26T05:22:19;100860.50;;;2.12;94.61
33506;BME280;19843;51.040;13.782;2023-01-26T05:24:47;100863.16;;;2.12;94.19
33506;BME280;19843;51.040;13.782;2023-01-26T05:27:14;100861.81;;;1.96;94.77
33506;BME280;19843;51.040;13.782;2023-01-26T05:29:48;100856.31;;;2.03;94.78
33506;BME280;19843;51.040;13.782;2023-01-26T05:32:15;100869.63;;;2.00;95.45
33506;BME280;19843;51.040;13.782;2023-01-26T05:34:43;100863.53;;;1.97;95.16
33506;BME280;19843;51.040;13.782;2023-01-26T05:37:11;100867.13;;;1.94;95.07
33506;BME280;19843;51.040;13.782;2023-01-26T05:39:42;100869.78;;;1.93;95.82
33506;BME280;19843;51.040;13.782;2023-01-26T05:42:10;100863.50;;;1.98;96.12
33506;BME280;19843;51.040;13.782;2023-01-26T05:44:38;100871.50;;;1.95;95.78
33506;BME280;19843;51.040;13.782;2023-01-26T05:47:05;100871.59;;;1.91;95.88
33506;BME280;19843;51.040;13.782;2023-01-26T05:49:32;100862.03;;;1.86;96.44
33506;BME280;19843;51.040;13.782;2023-01-26T05:52:00;100866.00;;;2.04;96.57
33506;BME280;19843;51.040;13.782;2023-01-26T05:54:27;100865.94;;;2.06;95.50
33506;BME280;19843;51.040;13.782;2023-01-26T05:56:56;100854.66;;;1.99;95.34
33506;BME280;19843;51.040;13.782;2023-01-26T05:59:23;100867.84;;;2.01;95.00
33506;BME280;19843;51.040;13.782;2023-01-26T06:01:51;100862.47;;;2.04;95.34
33506;BME280;19843;51.040;13.782;2023-01-26T06:04:19;100860.66;;;2.06;95.56
33506;BME280;19843;51.040;13.782;2023-01-26T06:06:46;100858.75;;;2.11;95.16
33506;BME280;19843;51.040;13.782;2023-01-26T06:09:14;100867.81;;;2.02;94.69
33506;BME280;19843;51.040;13.782;2023-01-26T06:11:41;100864.69;;;1.86;95.13
33506;BME280;19843;51.040;13.782;2023-01-26T06:14:10;100866.19;;;1.97;95.34
33506;BME280;19843;51.040;13.782;2023-01-26T06:16:37;100864.38;;;1.99;95.56
33506;BME280;19843;51.040;13.782;2023-01-26T06:19:05;100863.50;;;1.98;95.32
33506;BME280;19843;51.040;13.782;2023-01-26T06:21:33;100868.72;;;2.01;94.94
33506;BME280;19843;51.040;13.782;2023-01-26T06:24:01;100870.50;;;2.01;94.91
33506;BME280;19843;51.040;13.782;2023-01-26T06:26:29;100874.22;;;1.92;94.62
33506;BME280;19843;51.040;13.782;2023-01-26T06:28:57;100868.34;;;1.79;95.14
33506;BME280;19843;51.040;13.782;2023-01-26T06:31:26;100873.75;;;1.75;95.33
33506;BME280;19843;51.040;13.782;2023-01-26T06:33:55;100874.44;;;1.83;95.95
33506;BME280;19843;51.040;13.782;2023-01-26T06:36:22;100867.22;;;1.90;96.08
33506;BME280;19843;51.040;13.782;2023-01-26T06:38:50;100869.91;;;1.88;95.95
33506;BME280;19843;51.040;13.782;2023-01-26T06:41:21;100876.84;;;1.94;95.38
33506;BME280;19843;51.040;13.782;2023-01-26T06:43:49;100875.47;;;1.77;95.90
33506;BME280;19843;51.040;13.782;2023-01-26T06:46:16;100879.66;;;1.86;95.91
33506;BME280;19843;51.040;13.782;2023-01-26T06:48:46;100875.03;;;1.96;95.88
33506;BME280;19843;51.040;13.782;2023-01-26T06:51:40;100868.22;;;1.85;96.29
33506;BME280;19843;51.040;13.782;2023-01-26T06:54:09;100870.19;;;1.77;96.90
33506;BME280;19843;51.040;13.782;2023-01-26T06:56:37;100865.50;;;1.88;96.90
33506;BME280;19843;51.040;13.782;2023-01-26T06:59:05;100861.25;;;1.81;97.18
33506;BME280;19843;51.040;13.782;2023-01-26T07:01:37;100865.19;;;2.01;97.33
33506;BME280;19843;51.040;13.782;2023-01-26T07:04:07;100856.91;;;2.16;96.64
33506;BME280;19843;51.040;13.782;2023-01-26T07:06:34;100857.25;;;2.01;97.08
33506;BME280;19843;51.040;13.782;2023-01-26T07:09:02;100866.03;;;2.03;96.95
33506;BME280;19843;51.040;13.782;2023-01-26T07:11:29;100866.59;;;2.16;96.47
33506;BME280;19843;51.040;13.782;2023-01-26T07:13:58;100864.50;;;2.28;96.06
33506;BME280;19843;51.040;13.782;2023-01-26T07:16:26;100872.81;;;2.13;96.63
33506;BME280;19843;51.040;13.782;2023-01-26T07:18:53;100867.63;;;2.10;96.35
33506;BME280;19843;51.040;13.782;2023-01-26T07:21:22;100864.00;;;2.14;96.53
33506;BME280;19843;51.040;13.782;2023-01-26T07:23:50;100867.72;;;2.07;96.91
33506;BME280;19843;51.040;13.782;2023-01-26T07:26:19;100862.31;;;2.10;96.30
33506;BME280;19843;51.040;13.782;2023-01-26T07:28:47;100866.28;;;1.92;97.05
33506;BME280;19843;51.040;13.782;2023-01-26T07:31:15;100859.06;;;1.99;96.90
33506;BME280;19843;51.040;13.782;2023-01-26T07:33:42;100862.75;;;1.93;97.61
33506;BME280;19843;51.040;13.782;2023-01-26T07:36:10;100860.91;;;1.95;97.76
33506;BME280;19843;51.040;13.782;2023-01-26T07:38:38;100863.50;;;1.98;96.99
33506;BME280;19843;51.040;13.782;2023-01-26T07:41:08;100857.25;;;2.01;97.26
33506;BME280;19843;51.040;13.782;2023-01-26T07:43:36;100849.41;;;1.98;97.16
33506;BME280;19843;51.040;13.782;2023-01-26T07:46:04;100854.81;;;1.93;97.97
33506;BME280;19843;51.040;13.782;2023-01-26T07:48:32;100863.56;;;1.95;97.46
33506;BME280;19843;51.040;13.782;2023-01-26T07:51:01;100860.88;;;1.97;97.42
33506;BME280;19843;51.040;13.782;2023-01-26T07:53:29;100860.34;;;1.82;97.38
33506;BME280;19843;51.040;13.782;2023-01-26T07:56:08;100868.81;;;1.97;97.22
33506;BME280;19843;51.040;13.782;2023-01-26T07:58:36;100871.31;;;2.03;96.03
33506;BME280;19843;51.040;13.782;2023-01-26T08:01:09;100865.94;;;2.06;96.06
33506;BME280;19843;51.040;13.782;2023-01-26T08:03:37;100870.28;;;2.08;96.43
33506;BME280;19843;51.040;13.782;2023-01-26T08:06:06;100869.75;;;1.96;96.16
33506;BME280;19843;51.040;13.782;2023-01-26T08:08:38;100868.59;;;2.06;95.33
33506;BME280;19843;51.040;13.782;2023-01-26T08:11:08;100862.53;;;2.02;95.55
33506;BME280;19843;51.040;13.782;2023-01-26T08:13:37;100862.09;;;2.19;94.96
33506;BME280;19843;51.040;13.782;2023-01-26T08:16:06;100859.25;;;2.27;95.15
33506;BME280;19843;51.040;13.782;2023-01-26T08:18:37;100860.63;;;2.42;94.47
33506;BME280;19843;51.040;13.782;2023-01-26T08:21:05;100862.81;;;2.26;93.78
33506;BME280;19843;51.040;13.782;2023-01-26T08:23:32;100858.56;;;2.20;94.85
33506;BME280;19843;51.040;13.782;2023-01-26T08:26:00;100859.88;;;2.02;95.21
33506;BME280;19843;51.040;13.782;2023-01-26T08:28:29;100853.44;;;2.13;95.36
33506;BME280;19843;51.040;13.782;2023-01-26T08:31:02;100851.00;;;2.05;94.88
33506;BME280;19843;51.040;13.782;2023-01-26T08:33:30;100854.03;;;2.24;94.29
33506;BME280;19843;51.040;13.782;2023-01-26T08:36:00;100857.03;;;2.10;94.58
33506;BME280;19843;51.040;13.782;2023-01-26T08:38:29;100851.97;;;2.01;95.02
33506;BME280;19843;51.040;13.782;2023-01-26T08:40:57;100848.41;;;2.02;96.55
33506;BME280;19843;51.040;13.782;2023-01-26T08:43:25;100851.66;;;2.13;96.29
33506;BME280;19843;51.040;13.782;2023-01-26T08:45:54;100854.28;;;2.15;96.04
33506;BME280;19843;51.040;13.782;2023-01-26T08:48:21;100843.53;;;2.21;95.70
33506;BME280;19843;51.040;13.782;2023-01-26T08:50:52;100846.94;;;2.26;94.88
33506;BME280;19843;51.040;13.782;2023-01-26T08:53:20;100841.97;;;2.14;95.19
33506;BME280;19843;51.040;13.782;2023-01-26T08:55:48;100839.47;;;2.07;95.79
33506;BME280;19843;51.040;13.782;2023-01-26T08:58:16;100841.03;;;2.16;94.76
33506;BME280;19843;51.040;13.782;2023-01-26T09:00:43;100854.91;;;2.24;95.14
33506;BME280;19843;51.040;13.782;2023-01-26T09:03:12;100856.91;;;2.16;94.52
33506;BME280;19843;51.040;13.782;2023-01-26T09:05:40;100852.78;;;2.39;93.96
33506;BME280;19843;51.040;13.782;2023-01-26T09:08:08;100855.81;;;2.25;93.71
33506;BME280;19843;51.040;13.782;2023-01-26T09:10:39;100862.19;;;2.16;94.27
33506;BME280;19843;51.040;13.782;2023-01-26T09:13:08;100853.53;;;2.09;94.60
33506;BME280;19843;51.040;13.782;2023-01-26T09:15:36;100854.88;;;2.26;94.05
33506;BME280;19843;51.040;13.782;2023-01-26T09:18:04;100856.41;;;2.35;94.13
33506;BME280;19843;51.040;13.782;2023-01-26T09:20:33;100858.47;;;2.23;94.65
33506;BME280;19843;51.040;13.782;2023-01-26T09:23:00;100858.66;;;2.16;94.56
33506;BME280;19843;51.040;13.782;2023-01-26T09:25:28;100863.38;;;2.03;95.15
33506;BME280;19843;51.040;13.782;2023-01-26T09:27:56;100868.22;;;1.85;95.52
33506;BME280;19843;51.040;13.782;2023-01-26T09:30:23;100883.50;;;1.73;96.87
33506;BME280;19843;51.040;13.782;2023-01-26T09:32:51;100881.38;;;1.88;96.06
33506;BME280;19843;51.040;13.782;2023-01-26T09:35:19;100888.53;;;1.83;95.99
33506;BME280;19843;51.040;13.782;2023-01-26T09:37:47;100884.22;;;1.79;96.69
33506;BME280;19843;51.040;13.782;2023-01-26T09:40:17;100885.97;;;1.80;96.61
33506;BME280;19843;51.040;13.782;2023-01-26T09:42:57;100873.38;;;1.90;96.41
33506;BME280;19843;51.040;13.782;2023-01-26T09:45:31;100882.56;;;1.75;97.16
33506;BME280;19843;51.040;13.782;2023-01-26T09:48:08;100886.66;;;1.88;98.07
33506;BME280;19843;51.040;13.782;2023-01-26T09:50:41;100882.47;;;1.80;98.31
33506;BME280;19843;51.040;13.782;2023-01-26T09:53:17;100880.75;;;1.77;97.69
33506;BME280;19843;51.040;13.782;2023-01-26T09:55:47;100886.09;;;1.74;97.63
33506;BME280;19843;51.040;13.782;2023-01-26T09:58:19;100883.13;;;1.49;97.48
33506;BME280;19843;51.040;13.782;2023-01-26T10:00:49;100886.50;;;1.56;97.86
33506;BME280;19843;51.040;13.782;2023-01-26T10:03:23;100878.47;;;1.62;97.49
33506;BME280;19843;51.040;13.782;2023-01-26T10:05:59;100881.56;;;1.79;97.62
33506;BME280;19843;51.040;13.782;2023-01-26T10:08:33;100888.09;;;1.63;98.60
33506;BME280;19843;51.040;13.782;2023-01-26T10:11:03;100879.91;;;1.75;98.33
33506;BME280;19843;51.040;13.782;2023-01-26T10:13:31;100874.56;;;1.77;97.78
33506;BME280;19843;51.040;13.782;2023-01-26T10:16:03;100877.94;;;1.83;97.25
33506;BME280;19843;51.040;13.782;2023-01-26T10:18:36;100874.56;;;1.78;97.74
33506;BME280;19843;51.040;13.782;2023-01-26T10:21:09;100870.22;;;1.76;97.72
33506;BME280;19843;51.040;13.782;2023-01-26T10:23:41;100865.75;;;1.78;97.39
33506;BME280;19843;51.040;13.782;2023-01-26T10:26:16;100866.41;;;1.87;97.21
33506;BME280;19843;51.040;13.782;2023-01-26T10:28:44;100879.88;;;1.77;96.02
33506;BME280;19843;51.040;13.782;2023-01-26T10:31:15;100877.16;;;1.80;95.77
33506;BME280;19843;51.040;13.782;2023-01-26T10:33:48;100868.41;;;1.78;96.35
33506;BME280;19843;51.040;13.782;2023-01-26T10:36:17;100864.09;;;1.74;97.30
33506;BME280;19843;51.040;13.782;2023-01-26T10:38:48;100869.25;;;1.78;98.10
33506;BME280;19843;51.040;13.782;2023-01-26T10:41:22;100865.88;;;1.73;98.07
33506;BME280;19843;51.040;13.782;2023-01-26T10:43:52;100857.63;;;1.85;97.60
33506;BME280;19843;51.040;13.782;2023-01-26T10:46:23;100858.34;;;1.92;96.77
33506;BME280;19843;51.040;13.782;2023-01-26T10:48:52;100845.00;;;1.97;97.11
33506;BME280;19843;51.040;13.782;2023-01-26T10:51:24;100847.84;;;1.89;96.61
33506;BME280;19843;51.040;13.782;2023-01-26T10:54:26;100849.72;;;1.84;97.36
33506;BME280;19843;51.040;13.782;2023-01-26T10:56:55;100855.22;;;1.75;97.58
33506;BME280;19843;51.040;13.782;2023-01-26T10:59:27;100841.72;;;1.88;97.09
33506;BME280;19843;51.040;13.782;2023-01-26T11:01:58;100842.84;;;1.77;96.55
33506;BME280;19843;51.040;13.782;2023-01-26T11:04:27;100834.91;;;1.77;97.53
33506;BME280;19843;51.040;13.782;2023-01-26T11:07:14;100839.69;;;1.98;97.72
33506;BME280;19843;51.040;13.782;2023-01-26T11:09:51;100840.91;;;1.85;95.97
33506;BME280;19843;51.040;13.782;2023-01-26T11:12:20;100835.06;;;2.06;95.44
33506;BME280;19843;51.040;13.782;2023-01-26T11:15:00;100846.06;;;1.91;95.37
33506;BME280;19843;51.040;13.782;2023-01-26T11:17:33;100842.47;;;1.94;95.06
33506;BME280;19843;51.040;13.782;2023-01-26T11:20:22;100834.78;;;1.83;95.16
33506;BME280;19843;51.040;13.782;2023-01-26T11:22:58;100847.47;;;1.69;96.26
33506;BME280;19843;51.040;13.782;2023-01-26T11:25:34;100845.69;;;1.69;96.54
33506;BME280;19843;51.040;13.782;2023-01-26T11:28:18;100838.16;;;1.90;96.35
33506;BME280;19843;51.040;13.782;2023-01-26T11:31:03;100829.41;;;1.86;96.30
33506;BME280;19843;51.040;13.782;2023-01-26T11:33:43;100828.72;;;1.78;96.65
33506;BME280;19843;51.040;13.782;2023-01-26T11:36:20;100825.63;;;1.98;95.95
33506;BME280;19843;51.040;13.782;2023-01-26T11:38:55;100818.47;;;2.00;94.97
33506;BME280;19843;51.040;13.782;2023-01-26T11:41:39;100821.69;;;2.13;95.18
33506;BME280;19843;51.040;13.782;2023-01-26T11:44:31;100819.91;;;2.13;94.59
33506;BME280;19843;51.040;13.782;2023-01-26T11:47:13;100812.22;;;2.04;94.78
33506;BME280;19843;51.040;13.782;2023-01-26T11:50:02;100806.53;;;2.19;94.92
33506;BME280;19843;51.040;13.782;2023-01-26T11:52:35;100797.63;;;1.87;95.55
33506;BME280;19843;51.040;13.782;2023-01-26T11:55:22;100808.09;;;1.92;96.23
33506;BME280;19843;51.040;13.782;2023-01-26T11:58:01;100802.47;;;2.06;95.18
33506;BME280;19843;51.040;13.782;2023-01-26T12:00:36;100799.81;;;2.06;95.16
33506;BME280;19843;51.040;13.782;2023-01-26T12:03:16;100800.41;;;2.17;94.41
33506;BME280;19843;51.040;13.782;2023-01-26T12:05:47;100793.88;;;1.98;94.30
33506;BME280;19843;51.040;13.782;2023-01-26T12:08:19;100786.81;;;1.97;94.62
33506;BME280;19843;51.040;13.782;2023-01-26T12:10:57;100786.84;;;1.95;94.30
33506;BME280;19843;51.040;13.782;2023-01-26T12:13:54;100781.44;;;2.00;94.42
33506;BME280;19843;51.040;13.782;2023-01-26T12:16:29;100780.56;;;2.01;93.86
33506;BME280;19843;51.040;13.782;2023-01-26T12:19:04;100776.63;;;1.81;94.20
33506;BME280;19843;51.040;13.782;2023-01-26T12:21:37;100777.00;;;2.02;93.11
33506;BME280;19843;51.040;13.782;2023-01-26T12:24:12;100771.88;;;1.96;92.58
33506;BME280;19843;51.040;13.782;2023-01-26T12:27:02;100764.91;;;1.93;92.02
33506;BME280;19843;51.040;13.782;2023-01-26T12:29:39;100757.59;;;2.03;92.17
33506;BME280;19843;51.040;13.782;2023-01-26T12:32:10;100764.00;;;1.93;92.42
33506;BME280;19843;51.040;13.782;2023-01-26T12:34:39;100762.84;;;2.04;91.42
33506;BME280;19843;51.040;13.782;2023-01-26T12:37:21;100766.03;;;1.83;90.60
33506;BME280;19843;51.040;13.782;2023-01-26T12:39:59;100755.31;;;1.87;91.19
33506;BME280;19843;51.040;13.782;2023-01-26T12:42:39;100764.09;;;1.90;90.43
33506;BME280;19843;51.040;13.782;2023-01-26T12:45:13;100769.41;;;1.88;91.28
33506;BME280;19843;51.040;13.782;2023-01-26T12:47:46;100762.00;;;2.02;91.96
33506;BME280;19843;51.040;13.782;2023-01-26T12:50:23;100753.91;;;2.08;90.99
33506;BME280;19843;51.040;13.782;2023-01-26T12:52:55;100744.38;;;2.01;91.24
33506;BME280;19843;51.040;13.782;2023-01-26T12:55:26;100759.75;;;1.87;91.31
33506;BME280;19843;51.040;13.782;2023-01-26T12:57:57;100749.44;;;2.11;91.45
33506;BME280;19843;51.040;13.782;2023-01-26T13:00:31;100740.09;;;1.97;90.73
33506;BME280;19843;51.040;13.782;2023-01-26T13:03:03;100744.50;;;1.97;91.06
33506;BME280;19843;51.040;13.782;2023-01-26T13:05:34;100736.56;;;1.97;91.10
33506;BME280;19843;51.040;13.782;2023-01-26T13:08:45;100724.84;;;2.07;90.62
33506;BME280;19843;51.040;13.782;2023-01-26T13:11:42;100727.91;;;1.92;89.62
33506;BME280;19843;51.040;13.782;2023-01-26T13:14:24;100736.41;;;2.04;90.71